sensor_id;sensor_type;location;lat;lon;timestamp;temperature;humidity
33715;DHT22;20043;50.998;4.754;2022-08-06T00:01:00;13.90;99.90
33715;DHT22;20043;50.998;4.754;2022-08-06T00:03:32;13.90;99.90
33715;DHT22;20043;50.998;4.754;2022-08-06T00:05:57;13.80;99.90
33715;DHT22;20043;50.998;4.754;2022-08-06T00:08:23;14.00;99.90
33715;DHT22;20043;50.998;4.754;2022-08-06T00:10:49;14.00;99.90
33715;DHT22;20043;50.998;4.754;2022-08-06T00:13:14;13.90;99.90
33715;DHT22;20043;50.998;4.754;2022-08-06T00:15:40;13.80;99.90
33715;DHT22;20043;50.998;4.754;2022-08-06T00:18:06;13.60;99.90
33715;DHT22;20043;50.998;4.754;2022-08-06T00:20:32;13.60;99.90
33715;DHT22;20043;50.998;4.754;2022-08-06T00:23:00;13.70;99.90
33715;DHT22;20043;50.998;4.754;2022-08-06T00:25:26;13.60;99.90
33715;DHT22;20043;50.998;4.754;2022-08-06T00:27:51;13.70;99.90
33715;DHT22;20043;50.998;4.754;2022-08-06T00:30:17;13.80;99.90
33715;DHT22;20043;50.998;4.754;2022-08-06T00:32:43;13.70;99.90
33715;DHT22;20043;50.998;4.754;2022-08-06T00:35:08;13.80;99.90
33715;DHT22;20043;50.998;4.754;2022-08-06T00:37:34;13.70;99.90
33715;DHT22;20043;50.998;4.754;2022-08-06T00:39:59;13.70;99.90
33715;DHT22;20043;50.998;4.754;2022-08-06T00:42:26;13.80;99.90
33715;DHT22;20043;50.998;4.754;2022-08-06T00:44:52;13.70;99.90
33715;DHT22;20043;50.998;4.754;2022-08-06T00:47:18;13.60;99.90
33715;DHT22;20043;50.998;4.754;2022-08-06T00:49:43;13.50;99.90
33715;DHT22;20043;50.998;4.754;2022-08-06T00:52:09;13.50;99.90
33715;DHT22;20043;50.998;4.754;2022-08-06T00:54:35;13.60;99.90
33715;DHT22;20043;50.998;4.754;2022-08-06T00:57:00;13.70;99.90
33715;DHT22;20043;50.998;4.754;2022-08-06T00:59:26;13.70;99.90
33715;DHT22;20043;50.998;4.754;2022-08-06T01:01:52;13.50;99.90
33715;DHT22;20043;50.998;4.754;2022-08-06T01:04:18;13.40;99.90
33715;DHT22;20043;50.998;4.754;2022-08-06T01:06:44;13.50;99.90
33715;DHT22;20043;50.998;4.754;2022-08-06T01:09:10;13.50;99.90
33715;DHT22;20043;50.998;4.754;2022-08-06T01:11:36;13.60;99.90
33715;DHT22;20043;50.998;4.754;2022-08-06T01:14:01;13.50;99.90
33715;DHT22;20043;50.998;4.754;2022-08-06T01:16:48;13.50;99.90
33715;DHT22;20043;50.998;4.754;2022-08-06T01:22:07;13.20;99.90
33715;DHT22;20043;50.998;4.754;2022-08-06T01:25:08;13.20;99.90
33715;DHT22;20043;50.998;4.754;2022-08-06T01:28:01;13.20;99.90
33715;DHT22;20043;50.998;4.754;2022-08-06T01:30:32;13.00;99.90
33715;DHT22;20043;50.998;4.754;2022-08-06T01:33:07;12.90;99.90
33715;DHT22;20043;50.998;4.754;2022-08-06T01:35:40;12.70;99.90
33715;DHT22;20043;50.998;4.754;2022-08-06T01:38:14;12.70;99.90
33715;DHT22;20043;50.998;4.754;2022-08-06T01:40:42;12.60;99.90
33715;DHT22;20043;50.998;4.754;2022-08-06T01:43:11;12.50;99.90
33715;DHT22;20043;50.998;4.754;2022-08-06T01:45:39;12.60;99.90
33715;DHT22;20043;50.998;4.754;2022-08-06T01:48:08;12.60;99.90
33715;DHT22;20043;50.998;4.754;2022-08-06T01:50:38;12.60;99.90
33715;DHT22;20043;50.998;4.754;2022-08-06T01:53:06;12.60;99.90
33715;DHT22;20043;50.998;4.754;2022-08-06T01:55:41;12.50;99.90
33715;DHT22;20043;50.998;4.754;2022-08-06T01:58:08;12.60;99.90
33715;DHT22;20043;50.998;4.754;2022-08-06T02:00:38;12.70;99.90
33715;DHT22;20043;50.998;4.754;2022-08-06T02:03:15;12.80;99.90
33715;DHT22;20043;50.998;4.754;2022-08-06T02:05:43;12.80;99.90
33715;DHT22;20043;50.998;4.754;2022-08-06T02:08:13;12.70;99.90
33715;DHT22;20043;50.998;4.754;2022-08-06T02:10:40;12.50;99.90
33715;DHT22;20043;50.998;4.754;2022-08-06T02:13:08;12.30;99.90
33715;DHT22;20043;50.998;4.754;2022-08-06T02:15:37;12.30;99.90
33715;DHT22;20043;50.998;4.754;2022-08-06T02:18:05;12.30;99.90
33715;DHT22;20043;50.998;4.754;2022-08-06T02:20:42;12.40;99.90
33715;DHT22;20043;50.998;4.754;2022-08-06T02:23:13;12.40;99.90
33715;DHT22;20043;50.998;4.754;2022-08-06T02:25:41;12.40;99.90
33715;DHT22;20043;50.998;4.754;2022-08-06T02:28:09;12.50;99.90
33715;DHT22;20043;50.998;4.754;2022-08-06T02:30:40;12.60;99.90
33715;DHT22;20043;50.998;4.754;2022-08-06T02:33:07;12.60;99.90
33715;DHT22;20043;50.998;4.754;2022-08-06T02:35:40;12.50;99.90
33715;DHT22;20043;50.998;4.754;2022-08-06T02:38:13;12.40;99.90
33715;DHT22;20043;50.998;4.754;2022-08-06T02:40:49;12.40;99.90
33715;DHT22;20043;50.998;4.754;2022-08-06T02:43:23;12.30;99.90
33715;DHT22;20043;50.998;4.754;2022-08-06T02:45:59;12.20;99.90
33715;DHT22;20043;50.998;4.754;2022-08-06T02:48:33;12.00;99.90
33715;DHT22;20043;50.998;4.754;2022-08-06T02:51:05;12.10;99.90
33715;DHT22;20043;50.998;4.754;2022-08-06T02:53:37;12.10;99.90
33715;DHT22;20043;50.998;4.754;2022-08-06T02:56:10;12.20;99.90
33715;DHT22;20043;50.998;4.754;2022-08-06T02:58:40;12.10;99.90
33715;DHT22;20043;50.998;4.754;2022-08-06T03:01:11;12.20;99.90
33715;DHT22;20043;50.998;4.754;2022-08-06T03:03:38;12.30;99.90
33715;DHT22;20043;50.998;4.754;2022-08-06T03:06:07;12.30;99.90
33715;DHT22;20043;50.998;4.754;2022-08-06T03:08:35;12.20;99.90
33715;DHT22;20043;50.998;4.754;2022-08-06T03:11:02;12.00;99.90
33715;DHT22;20043;50.998;4.754;2022-08-06T03:13:29;11.90;99.90
33715;DHT22;20043;50.998;4.754;2022-08-06T03:15:58;11.90;99.90
33715;DHT22;20043;50.998;4.754;2022-08-06T03:18:26;12.10;99.90
33715;DHT22;20043;50.998;4.754;2022-08-06T03:20:52;12.10;99.90
33715;DHT22;20043;50.998;4.754;2022-08-06T03:23:19;12.10;99.90
33715;DHT22;20043;50.998;4.754;2022-08-06T03:25:46;12.20;99.90
33715;DHT22;20043;50.998;4.754;2022-08-06T03:28:14;12.30;99.90
33715;DHT22;20043;50.998;4.754;2022-08-06T03:30:42;12.20;99.90
33715;DHT22;20043;50.998;4.754;2022-08-06T03:33:12;12.00;99.90
33715;DHT22;20043;50.998;4.754;2022-08-06T03:35:38;11.90;99.90
33715;DHT22;20043;50.998;4.754;2022-08-06T03:38:07;11.90;99.90
33715;DHT22;20043;50.998;4.754;2022-08-06T03:40:34;11.90;99.90
33715;DHT22;20043;50.998;4.754;2022-08-06T03:43:00;11.70;99.90
33715;DHT22;20043;50.998;4.754;2022-08-06T03:45:27;11.70;99.90
33715;DHT22;20043;50.998;4.754;2022-08-06T03:47:56;11.70;99.90
33715;DHT22;20043;50.998;4.754;2022-08-06T03:50:31;11.60;99.90
33715;DHT22;20043;50.998;4.754;2022-08-06T03:53:04;11.60;99.90
33715;DHT22;20043;50.998;4.754;2022-08-06T03:55:33;11.60;99.90
33715;DHT22;20043;50.998;4.754;2022-08-06T03:58:10;11.70;99.90
33715;DHT22;20043;50.998;4.754;2022-08-06T04:00:47;11.80;99.90
33715;DHT22;20043;50.998;4.754;2022-08-06T04:03:15;11.80;99.90
33715;DHT22;20043;50.998;4.754;2022-08-06T04:05:42;11.70;99.90
33715;DHT22;20043;50.998;4.754;2022-08-06T04:08:09;11.80;99.90
33715;DHT22;20043;50.998;4.754;2022-08-06T04:10:44;11.70;99.90
33715;DHT22;20043;50.998;4.754;2022-08-06T04:13:12;11.70;99.90
33715;DHT22;20043;50.998;4.754;2022-08-06T04:15:38;11.70;99.90
33715;DHT22;20043;50.998;4.754;2022-08-06T04:18:08;11.80;99.90
33715;DHT22;20043;50.998;4.754;2022-08-06T04:20:34;12.00;99.90
33715;DHT22;20043;50.998;4.754;2022-08-06T04:23:01;12.20;99.90
33715;DHT22;20043;50.998;4.754;2022-08-06T04:25:30;12.10;99.90
33715;DHT22;20043;50.998;4.754;2022-08-06T04:27:57;11.90;99.90
33715;DHT22;20043;50.998;4.754;2022-08-06T04:30:25;12.00;99.90
33715;DHT22;20043;50.998;4.754;2022-08-06T04:32:54;12.00;99.90
33715;DHT22;20043;50.998;4.754;2022-08-06T04:35:21;12.10;99.90
33715;DHT22;20043;50.998;4.754;2022-08-06T04:37:47;12.20;99.90
33715;DHT22;20043;50.998;4.754;2022-08-06T04:40:21;11.90;99.90
33715;DHT22;20043;50.998;4.754;2022-08-06T04:42:47;12.00;99.90
33715;DHT22;20043;50.998;4.754;2022-08-06T04:45:13;12.20;99.90
33715;DHT22;20043;50.998;4.754;2022-08-06T04:47:47;12.20;99.90
33715;DHT22;20043;50.998;4.754;2022-08-06T04:50:20;12.20;99.90
33715;DHT22;20043;50.998;4.754;2022-08-06T04:52:46;12.30;99.90
33715;DHT22;20043;50.998;4.754;2022-08-06T04:55:11;12.30;99.90
33715;DHT22;20043;50.998;4.754;2022-08-06T04:57:37;12.50;99.90
33715;DHT22;20043;50.998;4.754;2022-08-06T05:00:03;12.60;99.90
33715;DHT22;20043;50.998;4.754;2022-08-06T05:02:29;12.80;99.90
33715;DHT22;20043;50.998;4.754;2022-08-06T05:04:56;13.00;99.90
33715;DHT22;20043;50.998;4.754;2022-08-06T05:07:28;13.20;99.90
33715;DHT22;20043;50.998;4.754;2022-08-06T05:09:55;13.50;99.90
33715;DHT22;20043;50.998;4.754;2022-08-06T05:12:31;13.80;99.90
33715;DHT22;20043;50.998;4.754;2022-08-06T05:17:35;14.60;99.90
33715;DHT22;20043;50.998;4.754;2022-08-06T05:20:13;15.00;99.90
33715;DHT22;20043;50.998;4.754;2022-08-06T05:22:41;15.50;99.90
33715;DHT22;20043;50.998;4.754;2022-08-06T05:25:08;15.80;99.90
33715;DHT22;20043;50.998;4.754;2022-08-06T05:27:34;16.00;99.90
33715;DHT22;20043;50.998;4.754;2022-08-06T05:30:01;16.10;99.90
33715;DHT22;20043;50.998;4.754;2022-08-06T05:32:27;16.00;99.90
33715;DHT22;20043;50.998;4.754;2022-08-06T05:34:52;16.20;99.90
33715;DHT22;20043;50.998;4.754;2022-08-06T05:37:18;16.30;99.90
33715;DHT22;20043;50.998;4.754;2022-08-06T05:39:43;16.40;99.90
33715;DHT22;20043;50.998;4.754;2022-08-06T05:42:09;16.60;99.90
33715;DHT22;20043;50.998;4.754;2022-08-06T05:44:35;16.60;99.90
33715;DHT22;20043;50.998;4.754;2022-08-06T05:47:23;16.70;99.90
33715;DHT22;20043;50.998;4.754;2022-08-06T05:49:53;16.90;99.90
33715;DHT22;20043;50.998;4.754;2022-08-06T05:52:24;17.10;99.90
33715;DHT22;20043;50.998;4.754;2022-08-06T05:55:08;17.50;99.90
33715;DHT22;20043;50.998;4.754;2022-08-06T05:57:58;18.00;99.90
33715;DHT22;20043;50.998;4.754;2022-08-06T06:00:24;18.80;99.90
33715;DHT22;20043;50.998;4.754;2022-08-06T06:02:54;19.40;99.90
33715;DHT22;20043;50.998;4.754;2022-08-06T06:05:21;20.10;99.90
33715;DHT22;20043;50.998;4.754;2022-08-06T06:07:49;20.60;99.90
33715;DHT22;20043;50.998;4.754;2022-08-06T06:10:15;21.10;99.90
33715;DHT22;20043;50.998;4.754;2022-08-06T06:12:42;21.30;99.90
33715;DHT22;20043;50.998;4.754;2022-08-06T06:15:10;21.60;99.90
33715;DHT22;20043;50.998;4.754;2022-08-06T06:23:23;22.50;99.90
33715;DHT22;20043;50.998;4.754;2022-08-06T06:26:08;22.60;99.90
33715;DHT22;20043;50.998;4.754;2022-08-06T06:28:58;22.30;99.90
33715;DHT22;20043;50.998;4.754;2022-08-06T06:35:22;22.10;99.90
33715;DHT22;20043;50.998;4.754;2022-08-06T06:48:51;21.70;99.90
33715;DHT22;20043;50.998;4.754;2022-08-06T06:51:31;21.70;99.90
33715;DHT22;20043;50.998;4.754;2022-08-06T06:53:57;21.70;99.90
33715;DHT22;20043;50.998;4.754;2022-08-06T06:56:28;21.70;99.90
33715;DHT22;20043;50.998;4.754;2022-08-06T06:59:16;21.60;99.90
33715;DHT22;20043;50.998;4.754;2022-08-06T07:01:49;21.10;99.90
33715;DHT22;20043;50.998;4.754;2022-08-06T07:04:17;20.80;99.90
33715;DHT22;20043;50.998;4.754;2022-08-06T07:06:44;20.80;99.90
33715;DHT22;20043;50.998;4.754;2022-08-06T07:09:21;20.80;99.90
33715;DHT22;20043;50.998;4.754;2022-08-06T07:11:48;20.70;99.90
33715;DHT22;20043;50.998;4.754;2022-08-06T07:14:18;20.60;99.90
33715;DHT22;20043;50.998;4.754;2022-08-06T07:16:46;20.60;99.90
33715;DHT22;20043;50.998;4.754;2022-08-06T07:19:13;20.80;99.90
33715;DHT22;20043;50.998;4.754;2022-08-06T07:21:40;20.90;99.90
33715;DHT22;20043;50.998;4.754;2022-08-06T07:24:09;20.50;99.90
33715;DHT22;20043;50.998;4.754;2022-08-06T07:26:36;20.60;99.90
33715;DHT22;20043;50.998;4.754;2022-08-06T07:29:02;20.70;99.90
33715;DHT22;20043;50.998;4.754;2022-08-06T07:31:29;20.80;99.90
33715;DHT22;20043;50.998;4.754;2022-08-06T07:33:56;20.90;99.90
33715;DHT22;20043;50.998;4.754;2022-08-06T07:36:24;20.80;99.90
33715;DHT22;20043;50.998;4.754;2022-08-06T07:38:57;20.90;99.90
33715;DHT22;20043;50.998;4.754;2022-08-06T07:41:26;21.00;99.90
33715;DHT22;20043;50.998;4.754;2022-08-06T07:43:54;21.10;99.90
33715;DHT22;20043;50.998;4.754;2022-08-06T07:46:26;21.20;99.90
33715;DHT22;20043;50.998;4.754;2022-08-06T07:48:56;20.80;99.90
33715;DHT22;20043;50.998;4.754;2022-08-06T07:51:23;20.70;99.90
33715;DHT22;20043;50.998;4.754;2022-08-06T07:53:51;20.60;99.90
33715;DHT22;20043;50.998;4.754;2022-08-06T07:56:17;20.70;99.90
33715;DHT22;20043;50.998;4.754;2022-08-06T07:58:44;20.90;99.90
33715;DHT22;20043;50.998;4.754;2022-08-06T08:01:11;21.00;99.90
33715;DHT22;20043;50.998;4.754;2022-08-06T08:03:37;20.70;99.90
33715;DHT22;20043;50.998;4.754;2022-08-06T08:06:22;20.90;99.90
33715;DHT22;20043;50.998;4.754;2022-08-06T08:09:00;20.90;99.90
33715;DHT22;20043;50.998;4.754;2022-08-06T08:11:27;20.90;99.90
33715;DHT22;20043;50.998;4.754;2022-08-06T08:13:55;21.00;99.90
33715;DHT22;20043;50.998;4.754;2022-08-06T08:16:21;20.60;99.90
33715;DHT22;20043;50.998;4.754;2022-08-06T08:18:48;20.70;99.90
33715;DHT22;20043;50.998;4.754;2022-08-06T08:21:14;20.90;99.90
33715;DHT22;20043;50.998;4.754;2022-08-06T08:23:41;20.60;99.90
33715;DHT22;20043;50.998;4.754;2022-08-06T08:26:08;20.60;99.90
33715;DHT22;20043;50.998;4.754;2022-08-06T08:28:35;20.70;99.90
33715;DHT22;20043;50.998;4.754;2022-08-06T08:31:01;20.60;99.90
33715;DHT22;20043;50.998;4.754;2022-08-06T08:33:29;20.30;99.90
33715;DHT22;20043;50.998;4.754;2022-08-06T08:35:55;20.40;99.90
33715;DHT22;20043;50.998;4.754;2022-08-06T08:38:21;20.50;99.90
33715;DHT22;20043;50.998;4.754;2022-08-06T08:40:51;20.60;99.90
33715;DHT22;20043;50.998;4.754;2022-08-06T08:43:21;20.10;99.90
33715;DHT22;20043;50.998;4.754;2022-08-06T08:45:49;20.20;99.90
33715;DHT22;20043;50.998;4.754;2022-08-06T08:48:22;19.80;99.90
33715;DHT22;20043;50.998;4.754;2022-08-06T08:50:49;19.70;99.90
33715;DHT22;20043;50.998;4.754;2022-08-06T08:53:20;19.80;99.90
33715;DHT22;20043;50.998;4.754;2022-08-06T08:55:47;20.10;99.90
33715;DHT22;20043;50.998;4.754;2022-08-06T08:58:14;20.00;99.90
33715;DHT22;20043;50.998;4.754;2022-08-06T09:00:40;20.20;99.90
33715;DHT22;20043;50.998;4.754;2022-08-06T09:03:06;20.20;99.90
33715;DHT22;20043;50.998;4.754;2022-08-06T09:05:34;20.50;99.90
33715;DHT22;20043;50.998;4.754;2022-08-06T09:08:01;20.50;99.90
33715;DHT22;20043;50.998;4.754;2022-08-06T09:10:29;20.20;99.90
33715;DHT22;20043;50.998;4.754;2022-08-06T09:12:54;19.90;99.90
33715;DHT22;20043;50.998;4.754;2022-08-06T09:15:20;20.10;99.90
33715;DHT22;20043;50.998;4.754;2022-08-06T09:17:47;20.20;99.90
33715;DHT22;20043;50.998;4.754;2022-08-06T09:20:13;20.60;99.90
33715;DHT22;20043;50.998;4.754;2022-08-06T09:22:39;20.50;99.90
33715;DHT22;20043;50.998;4.754;2022-08-06T09:25:05;20.50;99.90
33715;DHT22;20043;50.998;4.754;2022-08-06T09:27:34;20.70;99.90
33715;DHT22;20043;50.998;4.754;2022-08-06T09:30:04;21.00;99.90
33715;DHT22;20043;50.998;4.754;2022-08-06T09:35:01;21.40;99.90
33715;DHT22;20043;50.998;4.754;2022-08-06T09:37:28;21.30;99.90
33715;DHT22;20043;50.998;4.754;2022-08-06T09:39:54;21.60;99.90
33715;DHT22;20043;50.998;4.754;2022-08-06T09:42:43;21.50;99.90
33715;DHT22;20043;50.998;4.754;2022-08-06T09:45:12;21.50;99.90
33715;DHT22;20043;50.998;4.754;2022-08-06T09:47:38;21.40;99.90
33715;DHT22;20043;50.998;4.754;2022-08-06T09:50:05;21.20;99.90
33715;DHT22;20043;50.998;4.754;2022-08-06T09:52:31;21.60;99.90
33715;DHT22;20043;50.998;4.754;2022-08-06T09:54:57;21.90;99.90
33715;DHT22;20043;50.998;4.754;2022-08-06T09:57:25;22.00;99.90
33715;DHT22;20043;50.998;4.754;2022-08-06T09:59:50;22.30;99.90
33715;DHT22;20043;50.998;4.754;2022-08-06T10:02:18;22.70;98.20
33715;DHT22;20043;50.998;4.754;2022-08-06T10:04:45;22.90;98.30
33715;DHT22;20043;50.998;4.754;2022-08-06T10:07:11;23.10;97.50
33715;DHT22;20043;50.998;4.754;2022-08-06T10:09:53;22.90;97.30
33715;DHT22;20043;50.998;4.754;2022-08-06T10:12:23;22.70;97.20
33715;DHT22;20043;50.998;4.754;2022-08-06T10:14:49;22.60;96.30
33715;DHT22;20043;50.998;4.754;2022-08-06T10:17:20;22.60;96.80
33715;DHT22;20043;50.998;4.754;2022-08-06T10:19:48;22.30;96.40
33715;DHT22;20043;50.998;4.754;2022-08-06T10:22:29;22.50;96.60
33715;DHT22;20043;50.998;4.754;2022-08-06T10:24:56;22.50;96.70
33715;DHT22;20043;50.998;4.754;2022-08-06T10:27:29;22.30;96.30
33715;DHT22;20043;50.998;4.754;2022-08-06T10:30:00;22.50;95.10
33715;DHT22;20043;50.998;4.754;2022-08-06T10:32:35;22.20;95.00
33715;DHT22;20043;50.998;4.754;2022-08-06T10:35:03;21.80;95.30
33715;DHT22;20043;50.998;4.754;2022-08-06T10:37:31;21.90;96.40
33715;DHT22;20043;50.998;4.754;2022-08-06T10:39:59;21.80;95.00
33715;DHT22;20043;50.998;4.754;2022-08-06T10:42:26;21.70;95.60
33715;DHT22;20043;50.998;4.754;2022-08-06T10:44:52;22.10;96.50
33715;DHT22;20043;50.998;4.754;2022-08-06T10:47:18;22.60;95.60
33715;DHT22;20043;50.998;4.754;2022-08-06T10:49:45;22.90;94.90
33715;DHT22;20043;50.998;4.754;2022-08-06T10:52:11;22.80;94.70
33715;DHT22;20043;50.998;4.754;2022-08-06T10:54:39;22.60;94.30
33715;DHT22;20043;50.998;4.754;2022-08-06T10:57:07;22.60;94.30
33715;DHT22;20043;50.998;4.754;2022-08-06T10:59:34;22.70;94.10
33715;DHT22;20043;50.998;4.754;2022-08-06T11:08:11;23.20;95.10
33715;DHT22;20043;50.998;4.754;2022-08-06T11:13:36;24.20;92.40
33715;DHT22;20043;50.998;4.754;2022-08-06T11:16:04;24.50;91.70
33715;DHT22;20043;50.998;4.754;2022-08-06T11:18:31;24.10;92.20
33715;DHT22;20043;50.998;4.754;2022-08-06T11:20:57;24.20;92.20
33715;DHT22;20043;50.998;4.754;2022-08-06T11:23:30;24.20;92.00
33715;DHT22;20043;50.998;4.754;2022-08-06T11:25:58;24.30;91.50
33715;DHT22;20043;50.998;4.754;2022-08-06T11:30:54;23.30;92.20
33715;DHT22;20043;50.998;4.754;2022-08-06T11:36:10;23.30;91.90
33715;DHT22;20043;50.998;4.754;2022-08-06T11:41:30;23.80;91.60
33715;DHT22;20043;50.998;4.754;2022-08-06T11:59:36;24.50;90.40
33715;DHT22;20043;50.998;4.754;2022-08-06T12:02:07;23.90;88.80
33715;DHT22;20043;50.998;4.754;2022-08-06T12:12:41;24.10;91.70
33715;DHT22;20043;50.998;4.754;2022-08-06T12:17:56;24.20;90.00
33715;DHT22;20043;50.998;4.754;2022-08-06T12:20:38;24.40;90.40
33715;DHT22;20043;50.998;4.754;2022-08-06T12:23:09;24.30;90.30
33715;DHT22;20043;50.998;4.754;2022-08-06T12:25:39;24.30;88.50
33715;DHT22;20043;50.998;4.754;2022-08-06T12:28:10;24.40;88.90
33715;DHT22;20043;50.998;4.754;2022-08-06T12:30:47;24.00;89.80
33715;DHT22;20043;50.998;4.754;2022-08-06T12:33:13;23.50;90.50
33715;DHT22;20043;50.998;4.754;2022-08-06T12:35:55;23.10;90.40
33715;DHT22;20043;50.998;4.754;2022-08-06T12:38:25;22.90;92.40
33715;DHT22;20043;50.998;4.754;2022-08-06T12:41:00;22.90;91.10
33715;DHT22;20043;50.998;4.754;2022-08-06T12:43:28;23.10;91.10
33715;DHT22;20043;50.998;4.754;2022-08-06T12:46:13;23.20;91.60
33715;DHT22;20043;50.998;4.754;2022-08-06T12:48:46;23.50;92.20
33715;DHT22;20043;50.998;4.754;2022-08-06T12:51:12;24.00;90.90
33715;DHT22;20043;50.998;4.754;2022-08-06T12:53:51;24.40;90.00
33715;DHT22;20043;50.998;4.754;2022-08-06T12:56:18;24.80;86.70
33715;DHT22;20043;50.998;4.754;2022-08-06T12:58:46;24.70;88.10
33715;DHT22;20043;50.998;4.754;2022-08-06T13:01:16;24.00;86.50
33715;DHT22;20043;50.998;4.754;2022-08-06T13:03:45;23.60;90.10
33715;DHT22;20043;50.998;4.754;2022-08-06T13:06:14;23.40;88.40
33715;DHT22;20043;50.998;4.754;2022-08-06T13:08:40;23.30;90.10
33715;DHT22;20043;50.998;4.754;2022-08-06T13:11:07;23.30;90.70
33715;DHT22;20043;50.998;4.754;2022-08-06T13:13:50;23.20;90.80
33715;DHT22;20043;50.998;4.754;2022-08-06T13:16:17;23.30;90.30
33715;DHT22;20043;50.998;4.754;2022-08-06T13:19:03;23.50;89.10
33715;DHT22;20043;50.998;4.754;2022-08-06T13:21:29;24.00;87.90
33715;DHT22;20043;50.998;4.754;2022-08-06T13:23:55;24.40;88.60
33715;DHT22;20043;50.998;4.754;2022-08-06T13:26:23;24.50;85.30
33715;DHT22;20043;50.998;4.754;2022-08-06T13:29:10;24.60;87.10
33715;DHT22;20043;50.998;4.754;2022-08-06T13:31:38;24.50;85.20
33715;DHT22;20043;50.998;4.754;2022-08-06T13:34:06;24.80;81.10
33715;DHT22;20043;50.998;4.754;2022-08-06T13:36:33;24.90;84.00
33715;DHT22;20043;50.998;4.754;2022-08-06T13:39:29;25.10;85.30
33715;DHT22;20043;50.998;4.754;2022-08-06T13:42:09;24.40;87.70
33715;DHT22;20043;50.998;4.754;2022-08-06T13:44:42;24.30;87.20
33715;DHT22;20043;50.998;4.754;2022-08-06T13:47:09;24.30;86.40
33715;DHT22;20043;50.998;4.754;2022-08-06T13:49:38;24.10;86.40
33715;DHT22;20043;50.998;4.754;2022-08-06T13:52:04;24.10;88.60
33715;DHT22;20043;50.998;4.754;2022-08-06T13:54:30;23.70;87.90
33715;DHT22;20043;50.998;4.754;2022-08-06T13:56:57;23.90;90.20
33715;DHT22;20043;50.998;4.754;2022-08-06T13:59:25;24.20;84.70
33715;DHT22;20043;50.998;4.754;2022-08-06T14:01:51;24.50;85.80
33715;DHT22;20043;50.998;4.754;2022-08-06T14:04:18;25.00;83.80
33715;DHT22;20043;50.998;4.754;2022-08-06T14:06:48;25.00;83.60
33715;DHT22;20043;50.998;4.754;2022-08-06T14:09:15;24.90;84.50
33715;DHT22;20043;50.998;4.754;2022-08-06T14:11:41;24.30;85.30
33715;DHT22;20043;50.998;4.754;2022-08-06T14:14:07;23.60;87.30
33715;DHT22;20043;50.998;4.754;2022-08-06T14:16:33;23.20;88.50
33715;DHT22;20043;50.998;4.754;2022-08-06T14:18:59;23.20;86.30
33715;DHT22;20043;50.998;4.754;2022-08-06T14:21:25;23.30;89.10
33715;DHT22;20043;50.998;4.754;2022-08-06T14:23:50;23.70;88.40
33715;DHT22;20043;50.998;4.754;2022-08-06T14:26:16;24.10;85.70
33715;DHT22;20043;50.998;4.754;2022-08-06T14:28:42;24.20;88.40
33715;DHT22;20043;50.998;4.754;2022-08-06T14:31:07;24.00;85.10
33715;DHT22;20043;50.998;4.754;2022-08-06T14:33:34;23.60;86.40
33715;DHT22;20043;50.998;4.754;2022-08-06T14:35:59;23.30;86.80
33715;DHT22;20043;50.998;4.754;2022-08-06T14:38:25;23.20;88.40
33715;DHT22;20043;50.998;4.754;2022-08-06T14:40:50;23.00;88.60
33715;DHT22;20043;50.998;4.754;2022-08-06T14:43:34;23.10;89.70
33715;DHT22;20043;50.998;4.754;2022-08-06T14:46:18;23.40;89.20
33715;DHT22;20043;50.998;4.754;2022-08-06T14:48:44;23.50;87.30
33715;DHT22;20043;50.998;4.754;2022-08-06T14:51:10;23.50;87.70
33715;DHT22;20043;50.998;4.754;2022-08-06T14:53:35;23.80;90.10
33715;DHT22;20043;50.998;4.754;2022-08-06T14:56:01;23.80;86.60
33715;DHT22;20043;50.998;4.754;2022-08-06T14:58:27;23.90;88.20
33715;DHT22;20043;50.998;4.754;2022-08-06T15:00:52;24.00;83.50
33715;DHT22;20043;50.998;4.754;2022-08-06T15:03:18;23.70;84.10
33715;DHT22;20043;50.998;4.754;2022-08-06T15:05:51;23.90;86.00
33715;DHT22;20043;50.998;4.754;2022-08-06T15:08:16;24.30;86.60
33715;DHT22;20043;50.998;4.754;2022-08-06T15:10:42;24.70;84.00
33715;DHT22;20043;50.998;4.754;2022-08-06T15:13:08;25.00;83.60
33715;DHT22;20043;50.998;4.754;2022-08-06T15:15:34;24.80;84.30
33715;DHT22;20043;50.998;4.754;2022-08-06T15:17:59;24.40;84.80
33715;DHT22;20043;50.998;4.754;2022-08-06T15:20:25;24.20;85.40
33715;DHT22;20043;50.998;4.754;2022-08-06T15:22:51;23.90;84.00
33715;DHT22;20043;50.998;4.754;2022-08-06T15:25:17;23.60;87.00
33715;DHT22;20043;50.998;4.754;2022-08-06T15:27:47;23.70;84.90
33715;DHT22;20043;50.998;4.754;2022-08-06T15:30:13;23.40;85.70
33715;DHT22;20043;50.998;4.754;2022-08-06T15:32:39;23.50;90.00
33715;DHT22;20043;50.998;4.754;2022-08-06T15:35:06;23.60;86.50
33715;DHT22;20043;50.998;4.754;2022-08-06T15:37:32;23.70;87.50
33715;DHT22;20043;50.998;4.754;2022-08-06T15:39:57;24.00;85.80
33715;DHT22;20043;50.998;4.754;2022-08-06T15:42:24;24.10;82.60
33715;DHT22;20043;50.998;4.754;2022-08-06T15:44:50;24.30;82.20
33715;DHT22;20043;50.998;4.754;2022-08-06T15:47:16;24.50;83.20
33715;DHT22;20043;50.998;4.754;2022-08-06T15:49:42;24.60;82.00
33715;DHT22;20043;50.998;4.754;2022-08-06T15:52:07;24.70;81.40
33715;DHT22;20043;50.998;4.754;2022-08-06T15:54:34;24.80;82.50
33715;DHT22;20043;50.998;4.754;2022-08-06T15:57:00;25.00;80.10
33715;DHT22;20043;50.998;4.754;2022-08-06T15:59:26;25.00;77.80
33715;DHT22;20043;50.998;4.754;2022-08-06T16:01:52;25.00;79.50
33715;DHT22;20043;50.998;4.754;2022-08-06T16:04:17;25.00;80.00
33715;DHT22;20043;50.998;4.754;2022-08-06T16:06:43;24.50;79.40
33715;DHT22;20043;50.998;4.754;2022-08-06T16:09:08;24.20;82.20
33715;DHT22;20043;50.998;4.754;2022-08-06T16:11:34;24.00;82.90
33715;DHT22;20043;50.998;4.754;2022-08-06T16:14:00;23.80;82.20
33715;DHT22;20043;50.998;4.754;2022-08-06T16:16:26;23.80;83.50
33715;DHT22;20043;50.998;4.754;2022-08-06T16:18:52;23.80;84.80
33715;DHT22;20043;50.998;4.754;2022-08-06T16:21:18;23.70;82.60
33715;DHT22;20043;50.998;4.754;2022-08-06T16:23:43;23.70;87.30
33715;DHT22;20043;50.998;4.754;2022-08-06T16:26:09;23.90;87.90
33715;DHT22;20043;50.998;4.754;2022-08-06T16:28:34;24.20;88.50
33715;DHT22;20043;50.998;4.754;2022-08-06T16:31:00;24.30;87.40
33715;DHT22;20043;50.998;4.754;2022-08-06T16:33:26;24.40;86.50
33715;DHT22;20043;50.998;4.754;2022-08-06T16:35:51;24.70;84.80
33715;DHT22;20043;50.998;4.754;2022-08-06T16:38:17;24.90;84.80
33715;DHT22;20043;50.998;4.754;2022-08-06T16:40:43;25.00;80.90
33715;DHT22;20043;50.998;4.754;2022-08-06T16:43:09;24.60;81.40
33715;DHT22;20043;50.998;4.754;2022-08-06T16:45:34;24.60;83.10
33715;DHT22;20043;50.998;4.754;2022-08-06T16:48:00;24.60;81.30
33715;DHT22;20043;50.998;4.754;2022-08-06T16:50:26;24.50;82.30
33715;DHT22;20043;50.998;4.754;2022-08-06T16:52:52;24.40;82.50